createdAt,value
2019-04-14T16:23:18.000Z,42.648
2019-04-14T16:33:18.000Z,43.361
2019-04-14T16:43:18.000Z,44.507
2019-04-14T16:53:21.000Z,45.552
2019-04-14T17:03:18.000Z,46.113
2019-04-14T17:13:18.000Z,46.64
2019-04-14T17:23:18.000Z,46.621
2019-04-14T17:33:18.000Z,46.68
2019-04-14T17:43:18.000Z,46.389
2019-04-14T17:53:22.000Z,46.441
2019-04-14T18:03:22.000Z,46.472
2019-04-14T18:13:20.000Z,46.409
2019-04-14T18:23:18.000Z,46.504
2019-04-14T18:33:18.000Z,46.517
2019-04-14T18:53:18.000Z,46.71
2019-04-14T19:03:18.000Z,46.696
2019-04-14T19:13:18.000Z,46.742
2019-04-14T19:23:19.000Z,46.794
2019-04-14T19:43:18.000Z,46.652
2019-04-14T19:53:19.000Z,46.728
2019-04-14T20:03:18.000Z,46.578
2019-04-14T20:13:19.000Z,46.717
2019-04-14T20:23:18.000Z,46.693
2019-04-14T20:43:20.000Z,46.599
2019-04-14T20:53:19.000Z,46.421
2019-04-14T21:03:18.000Z,46.148
2019-04-14T21:13:18.000Z,46.205
2019-04-14T21:23:19.000Z,46.029
2019-04-14T21:33:18.000Z,45.99
2019-04-14T21:43:19.000Z,46.198
2019-04-14T21:53:18.000Z,46.076
2019-04-14T22:03:19.000Z,46.029
2019-04-14T22:13:19.000Z,46.002
2019-04-14T22:23:19.000Z,45.965
2019-04-14T22:33:19.000Z,45.928
2019-04-14T22:43:20.000Z,45.986
2019-04-14T22:53:22.000Z,45.843
2019-04-14T23:03:19.000Z,45.914
2019-04-14T23:13:19.000Z,45.92
2019-04-14T23:23:19.000Z,45.95
2019-04-14T23:33:20.000Z,45.829
2019-04-14T23:43:20.000Z,45.825
2019-04-14T23:53:19.000Z,45.821
